Time;durP1;ratioP1;P1;durP2;ratioP2;P2;SDS_P1;SDS_P2;PMS_P1;PMS_P2;Temp;Humidity;BMP_temperature;BMP_pressure;BME280_temperature;BME280_humidity;BME280_pressure;Samples;Min_cycle;Max_cycle;Signal;HPM_P1;HPM_P2
2023/11/05 00:00:13;;;;;;;9.27;4.25;;;8.60;99.90;;;;;;4974485;28;20061;-75
2023/11/05 00:02:42;;;;;;;9.02;4.50;;;8.70;99.90;;;;;;5025369;28;20053;-73
2023/11/05 00:05:14;;;;;;;10.88;5.90;;;8.80;99.90;;;;;;4980017;28;20229;-74
2023/11/05 00:07:43;;;;;;;9.57;4.18;;;8.80;99.90;;;;;;4978304;28;20244;-75
2023/11/05 00:10:13;;;;;;;12.65;5.07;;;8.80;99.90;;;;;;4994113;28;20716;-78
2023/11/05 00:12:41;;;;;;;7.57;4.22;;;8.80;99.90;;;;;;5032415;28;20057;-77
2023/11/05 00:15:10;;;;;;;10.60;4.55;;;8.80;99.90;;;;;;4979106;28;20054;-76
2023/11/05 00:17:39;;;;;;;9.80;5.10;;;8.90;99.90;;;;;;4977802;28;20060;-77
2023/11/05 00:20:09;;;;;;;10.55;5.15;;;8.90;99.90;;;;;;4978863;28;20455;-76
2023/11/05 00:22:38;;;;;;;11.63;5.30;;;8.90;99.90;;;;;;5000811;28;20056;-75
2023/11/05 00:25:08;;;;;;;8.40;4.28;;;8.90;99.90;;;;;;4977865;28;20038;-76
2023/11/05 00:27:38;;;;;;;9.52;4.63;;;8.90;99.90;;;;;;4978296;28;20054;-76
2023/11/05 00:30:07;;;;;;;7.90;4.82;;;8.90;99.90;;;;;;4993691;28;20096;-77
2023/11/05 00:32:36;;;;;;;11.07;4.93;;;9.00;99.90;;;;;;4976267;28;20053;-76
2023/11/05 00:35:05;;;;;;;8.13;4.10;;;9.00;99.90;;;;;;4978010;28;20432;-76
2023/11/05 00:37:34;;;;;;;9.55;4.22;;;9.00;99.90;;;;;;4979180;28;20045;-77
2023/11/05 00:40:02;;;;;;;8.75;4.47;;;9.00;99.90;;;;;;4987160;28;20054;-76
2023/11/05 00:42:33;;;;;;;9.65;4.32;;;9.00;99.90;;;;;;4992766;28;20053;-76
2023/11/05 00:45:04;;;;;;;9.93;5.07;;;9.00;99.90;;;;;;4978738;28;20057;-77
2023/11/05 00:47:33;;;;;;;7.57;4.18;;;9.00;99.90;;;;;;4982661;28;20055;-77
2023/11/05 00:50:01;;;;;;;7.38;4.28;;;9.00;99.90;;;;;;4978103;28;20570;-77
2023/11/05 00:52:30;;;;;;;6.47;3.33;;;9.00;99.90;;;;;;4980569;28;22173;-78
2023/11/05 00:54:58;;;;;;;11.48;3.35;;;9.00;99.90;;;;;;5010947;28;20124;-76
2023/11/05 00:57:27;;;;;;;9.65;4.25;;;9.10;99.90;;;;;;4974406;28;20060;-77
2023/11/05 00:59:55;;;;;;;7.72;3.85;;;9.10;99.90;;;;;;4995468;28;20559;-77
2023/11/05 01:02:25;;;;;;;8.45;4.13;;;9.00;99.90;;;;;;4978681;28;20056;-77
2023/11/05 01:04:54;;;;;;;7.90;4.18;;;9.00;99.90;;;;;;4998237;28;20073;-76
2023/11/05 01:07:23;;;;;;;5.95;3.40;;;9.00;99.90;;;;;;4977037;28;20057;-77
2023/11/05 01:09:51;;;;;;;9.25;3.90;;;9.10;99.90;;;;;;5017478;28;20073;-77
2023/11/05 01:12:20;;;;;;;7.18;3.65;;;9.10;99.90;;;;;;4978852;28;20523;-77
2023/11/05 01:14:48;;;;;;;7.70;4.63;;;9.00;99.90;;;;;;5003855;28;20048;-78
2023/11/05 01:17:17;;;;;;;8.43;3.95;;;9.10;99.90;;;;;;4998637;28;20049;-78
2023/11/05 01:19:51;;;;;;;8.68;4.35;;;9.00;99.90;;;;;;4993683;28;20060;-78
2023/11/05 01:22:19;;;;;;;9.27;4.47;;;9.00;99.90;;;;;;4978210;28;20197;-76
2023/11/05 01:24:48;;;;;;;8.57;4.45;;;9.10;99.90;;;;;;4991937;28;20505;-79
2023/11/05 01:27:16;;;;;;;9.93;3.80;;;9.10;99.90;;;;;;4978329;28;20131;-78
2023/11/05 01:29:45;;;;;;;9.88;4.25;;;9.00;99.90;;;;;;4993051;28;22333;-77
2023/11/05 01:32:13;;;;;;;8.77;3.25;;;9.10;99.90;;;;;;5011599;28;20053;-79
2023/11/05 01:34:41;;;;;;;7.95;4.18;;;9.10;99.90;;;;;;4998070;28;20173;-77
2023/11/05 01:37:11;;;;;;;10.57;4.47;;;9.10;99.90;;;;;;4978253;28;20180;-77
2023/11/05 01:39:40;;;;;;;10.50;4.03;;;9.10;99.90;;;;;;4992102;28;20451;-77
2023/11/05 01:42:08;;;;;;;7.63;4.20;;;9.10;99.90;;;;;;4978662;28;20178;-78
2023/11/05 01:44:37;;;;;;;9.32;3.90;;;9.10;99.90;;;;;;4979489;28;20050;-77
2023/11/05 01:47:06;;;;;;;6.45;2.95;;;9.10;99.90;;;;;;5002311;28;20083;-79
2023/11/05 01:49:34;;;;;;;7.13;3.30;;;9.10;99.90;;;;;;5003006;28;20048;-78
2023/11/05 01:52:03;;;;;;;9.18;3.67;;;9.10;99.90;;;;;;4983158;28;20084;-76
2023/11/05 01:54:33;;;;;;;6.35;3.35;;;9.10;99.90;;;;;;4999189;28;20045;-77
2023/11/05 01:57:01;;;;;;;7.97;3.13;;;9.10;99.90;;;;;;4991343;28;20053;-77
2023/11/05 01:59:30;;;;;;;7.93;3.60;;;9.10;99.90;;;;;;4981491;28;20211;-78
2023/11/05 02:02:00;;;;;;;10.20;3.55;;;9.10;99.90;;;;;;4980003;28;20060;-78
2023/11/05 02:04:29;;;;;;;6.90;3.80;;;9.10;99.90;;;;;;4980454;28;20184;-76
2023/11/05 02:06:57;;;;;;;7.90;3.30;;;9.20;99.90;;;;;;4996469;28;20431;-76
2023/11/05 02:09:26;;;;;;;6.03;3.22;;;9.20;99.90;;;;;;4976818;28;20885;-78
2023/11/05 02:11:56;;;;;;;5.07;2.75;;;9.20;99.90;;;;;;4997365;28;20078;-77
2023/11/05 02:14:25;;;;;;;5.13;2.67;;;9.20;99.90;;;;;;5013308;28;20057;-78
2023/11/05 02:16:54;;;;;;;6.25;2.03;;;9.20;99.90;;;;;;4979325;28;20041;-77
2023/11/05 02:19:23;;;;;;;7.25;3.20;;;9.20;99.90;;;;;;4983812;28;20053;-77
2023/11/05 02:21:56;;;;;;;4.45;3.22;;;9.20;99.90;;;;;;4993153;28;22264;-78
2023/11/05 02:24:27;;;;;;;2.75;2.05;;;9.20;99.90;;;;;;4977033;28;20122;-78
2023/11/05 02:26:57;;;;;;;4.78;1.95;;;9.30;99.90;;;;;;4980059;28;20049;-77
2023/11/05 02:29:26;;;;;;;5.25;1.77;;;9.30;99.90;;;;;;4997029;28;20837;-75
2023/11/05 02:31:54;;;;;;;6.25;1.33;;;9.30;99.90;;;;;;4994268;28;20167;-75
2023/11/05 02:34:23;;;;;;;4.25;2.72;;;9.30;99.90;;;;;;5033179;28;20049;-76
2023/11/05 02:36:51;;;;;;;6.63;1.70;;;9.30;99.90;;;;;;4971853;28;20156;-76
2023/11/05 02:39:20;;;;;;;5.28;1.58;;;9.30;99.90;;;;;;5012877;28;20053;-77
2023/11/05 02:41:50;;;;;;;3.47;1.30;;;9.30;99.90;;;;;;4979847;28;20504;-79
2023/11/05 02:44:18;;;;;;;4.35;2.00;;;9.30;99.90;;;;;;4977028;28;20090;-76
2023/11/05 02:46:47;;;;;;;3.22;2.63;;;9.30;99.90;;;;;;5038696;28;20049;-76
2023/11/05 02:49:15;;;;;;;4.72;1.40;;;9.30;99.90;;;;;;5012931;28;20107;-78
2023/11/05 02:51:44;;;;;;;6.35;2.08;;;9.30;99.90;;;;;;4992738;28;20045;-76
2023/11/05 02:54:13;;;;;;;2.83;1.17;;;9.30;99.90;;;;;;4980602;28;20669;-76
2023/11/05 02:56:41;;;;;;;5.82;1.30;;;9.30;99.90;;;;;;4980765;28;22889;-76
2023/11/05 02:59:16;;;;;;;6.55;1.52;;;9.40;99.90;;;;;;4983583;28;20732;-76
2023/11/05 03:01:44;;;;;;;6.80;1.40;;;9.30;99.90;;;;;;5032102;28;20612;-76
2023/11/05 03:04:13;;;;;;;6.15;1.77;;;9.30;99.90;;;;;;4996100;28;20102;-76
2023/11/05 03:06:41;;;;;;;4.63;1.58;;;9.30;99.90;;;;;;5009332;28;20048;-76
2023/11/05 03:09:10;;;;;;;4.63;1.63;;;9.30;99.90;;;;;;4994175;28;20199;-75
2023/11/05 03:11:39;;;;;;;4.75;1.20;;;9.30;99.90;;;;;;4980101;28;20049;-76
2023/11/05 03:14:07;;;;;;;7.05;2.20;;;9.30;99.90;;;;;;4970923;28;20048;-75
2023/11/05 03:16:38;;;;;;;3.88;1.20;;;9.30;99.90;;;;;;4991908;28;20524;-76
2023/11/05 03:19:07;;;;;;;9.80;1.70;;;9.30;99.90;;;;;;4975894;28;20084;-76
2023/11/05 03:21:37;;;;;;;3.13;1.30;;;9.30;99.90;;;;;;5035030;28;20053;-76
2023/11/05 03:24:07;;;;;;;4.22;1.45;;;9.30;99.90;;;;;;4970386;28;20644;-76
2023/11/05 03:26:36;;;;;;;5.88;1.52;;;9.30;99.90;;;;;;5012425;28;20131;-76
2023/11/05 03:29:04;;;;;;;4.47;1.33;;;9.30;99.90;;;;;;4973582;28;20052;-76
2023/11/05 03:31:33;;;;;;;6.53;1.27;;;9.30;99.90;;;;;;4995217;28;20049;-76
2023/11/05 03:34:03;;;;;;;3.85;1.52;;;9.30;99.90;;;;;;4997224;28;20049;-76
2023/11/05 03:36:32;;;;;;;4.13;1.23;;;9.30;99.90;;;;;;4977973;28;20053;-76
2023/11/05 03:39:02;;;;;;;2.47;1.05;;;9.30;99.90;;;;;;4994924;28;20053;-76
2023/11/05 03:41:31;;;;;;;2.88;1.00;;;9.30;99.90;;;;;;4991150;28;21884;-76
2023/11/05 03:43:59;;;;;;;2.67;0.90;;;9.30;99.90;;;;;;4976157;28;20151;-76
2023/11/05 03:46:28;;;;;;;5.22;1.20;;;9.30;99.90;;;;;;4978150;28;20049;-76
2023/11/05 03:48:56;;;;;;;2.53;0.82;;;9.30;99.90;;;;;;5009862;28;20057;-76
2023/11/05 03:51:26;;;;;;;2.95;1.27;;;9.30;99.90;;;;;;4979243;28;20082;-76
2023/11/05 03:53:55;;;;;;;4.10;1.15;;;9.30;99.90;;;;;;4980256;28;20728;-76
2023/11/05 03:56:23;;;;;;;2.22;1.20;;;9.30;99.90;;;;;;4980423;28;21037;-76
2023/11/05 03:58:52;;;;;;;4.20;1.20;;;9.30;99.90;;;;;;4994182;28;20152;-76
2023/11/05 04:01:21;;;;;;;5.47;1.20;;;9.30;99.90;;;;;;5013435;28;20148;-76
2023/11/05 04:03:49;;;;;;;5.10;1.73;;;9.30;99.90;;;;;;5012728;28;20065;-76
2023/11/05 04:06:18;;;;;;;3.25;1.05;;;9.30;99.90;;;;;;4998432;28;20072;-76
2023/11/05 04:08:48;;;;;;;5.07;1.25;;;9.30;99.90;;;;;;5004753;28;20668;-76
2023/11/05 04:11:16;;;;;;;1.80;0.77;;;9.30;99.90;;;;;;5002687;28;20050;-76
2023/11/05 04:13:45;;;;;;;5.07;1.23;;;9.30;99.90;;;;;;4995213;28;20049;-76
2023/11/05 04:16:14;;;;;;;2.75;1.30;;;9.30;99.90;;;;;;5011286;28;20797;-76
2023/11/05 04:18:45;;;;;;;4.70;1.90;;;9.30;99.90;;;;;;4975723;28;20054;-76
2023/11/05 04:21:13;;;;;;;4.18;1.17;;;9.30;99.90;;;;;;4977698;28;20053;-76
2023/11/05 04:23:42;;;;;;;6.03;1.83;;;9.30;99.90;;;;;;4993627;28;20059;-76
2023/11/05 04:26:13;;;;;;;4.13;1.50;;;9.30;99.90;;;;;;4993300;28;20511;-76
2023/11/05 04:28:42;;;;;;;4.20;1.60;;;9.30;99.90;;;;;;4978235;28;20049;-76
2023/11/05 04:31:10;;;;;;;4.03;1.60;;;9.30;99.90;;;;;;5010999;28;20055;-76
2023/11/05 04:33:39;;;;;;;3.85;1.50;;;9.30;99.90;;;;;;4981278;28;20067;-76
2023/11/05 04:36:08;;;;;;;4.57;1.50;;;9.30;99.90;;;;;;4995410;28;20404;-76
2023/11/05 04:38:37;;;;;;;6.47;1.75;;;9.30;99.90;;;;;;4992002;28;20046;-75
2023/11/05 04:41:06;;;;;;;2.58;1.40;;;9.30;99.90;;;;;;4979841;28;22425;-76
2023/11/05 04:43:36;;;;;;;5.88;1.60;;;9.30;99.90;;;;;;4979085;28;22083;-76
2023/11/05 04:46:05;;;;;;;4.18;1.42;;;9.30;99.90;;;;;;4977434;28;20299;-76
2023/11/05 04:48:33;;;;;;;7.05;1.83;;;9.20;99.90;;;;;;4990861;28;20046;-76
2023/11/05 04:51:02;;;;;;;4.15;1.50;;;9.30;99.90;;;;;;4977954;28;20045;-74
2023/11/05 04:53:31;;;;;;;4.72;1.77;;;9.30;99.90;;;;;;4974807;28;20524;-74
2023/11/05 04:55:59;;;;;;;7.35;1.70;;;9.30;99.90;;;;;;4989483;28;20199;-75
2023/11/05 04:58:28;;;;;;;4.05;1.50;;;9.30;99.90;;;;;;5022176;28;20037;-75
2023/11/05 05:00:58;;;;;;;3.13;1.25;;;9.20;99.90;;;;;;4975808;28;20049;-75
2023/11/05 05:03:26;;;;;;;6.95;1.45;;;9.30;99.90;;;;;;4997331;28;20142;-74
2023/11/05 05:05:55;;;;;;;3.03;1.15;;;9.20;99.90;;;;;;4988258;28;20053;-75
2023/11/05 05:08:23;;;;;;;2.83;1.38;;;9.30;99.90;;;;;;4973428;28;20286;-74
2023/11/05 05:10:52;;;;;;;4.25;1.58;;;9.20;99.90;;;;;;4975858;28;20065;-74
2023/11/05 05:13:20;;;;;;;4.65;1.63;;;9.20;99.90;;;;;;5007795;28;20793;-74
2023/11/05 05:15:49;;;;;;;2.97;1.13;;;9.20;99.90;;;;;;4990795;28;20176;-75
2023/11/05 05:18:19;;;;;;;3.10;0.63;;;9.30;99.90;;;;;;4990171;28;21960;-75
2023/11/05 05:20:47;;;;;;;7.88;2.13;;;9.30;99.90;;;;;;4994663;28;20500;-75
2023/11/05 05:23:16;;;;;;;3.88;1.75;;;9.20;99.90;;;;;;4985652;28;20064;-75
2023/11/05 05:25:45;;;;;;;3.50;1.25;;;9.30;99.90;;;;;;4989303;28;20049;-76
2023/11/05 05:28:13;;;;;;;4.70;2.45;;;9.30;99.90;;;;;;4979280;28;20715;-76
2023/11/05 05:30:42;;;;;;;4.97;1.98;;;9.30;99.90;;;;;;4981332;28;20233;-76
2023/11/05 05:33:10;;;;;;;3.15;1.92;;;9.30;99.90;;;;;;4978942;28;20581;-74
2023/11/05 05:35:40;;;;;;;3.13;1.20;;;9.30;99.90;;;;;;4982039;28;20921;-75
2023/11/05 05:38:08;;;;;;;4.32;2.15;;;9.30;99.90;;;;;;4999425;28;20712;-74
2023/11/05 05:40:37;;;;;;;6.55;2.45;;;9.30;99.90;;;;;;4979872;28;20468;-75
2023/11/05 05:43:06;;;;;;;3.72;1.80;;;9.30;99.90;;;;;;4983475;28;20049;-75
2023/11/05 05:45:34;;;;;;;6.35;1.45;;;9.30;99.90;;;;;;4981862;28;20092;-76
2023/11/05 05:48:03;;;;;;;4.50;2.55;;;9.30;99.90;;;;;;4987063;28;20060;-76
2023/11/05 05:50:31;;;;;;;4.22;1.55;;;9.30;99.90;;;;;;4990227;28;20050;-77
2023/11/05 05:53:01;;;;;;;4.22;1.70;;;9.30;99.90;;;;;;5010285;28;20100;-77
2023/11/05 05:55:29;;;;;;;4.03;1.55;;;9.30;99.90;;;;;;4976840;28;20526;-75
2023/11/05 05:57:59;;;;;;;5.63;2.20;;;9.30;99.90;;;;;;4992116;28;20050;-75
2023/11/05 06:00:27;;;;;;;5.82;2.03;;;9.30;99.90;;;;;;4987954;28;22496;-77
2023/11/05 06:02:56;;;;;;;3.42;1.80;;;9.30;99.90;;;;;;5002536;28;21943;-77
2023/11/05 06:05:24;;;;;;;5.13;1.55;;;9.30;99.90;;;;;;4993378;28;20099;-78
2023/11/05 06:07:53;;;;;;;3.35;1.58;;;9.30;99.90;;;;;;4991676;28;20060;-79
2023/11/05 06:10:23;;;;;;;5.05;2.03;;;9.30;99.90;;;;;;5011026;28;20559;-78
2023/11/05 06:12:51;;;;;;;5.35;1.55;;;9.30;99.90;;;;;;4979707;28;20199;-77
2023/11/05 06:15:20;;;;;;;5.53;3.35;;;9.30;99.90;;;;;;5011235;28;20191;-77
2023/11/05 06:17:48;;;;;;;3.83;1.45;;;9.30;99.90;;;;;;4980788;28;20053;-77
2023/11/05 06:20:17;;;;;;;4.85;2.03;;;9.30;99.90;;;;;;4981156;28;20049;-77
2023/11/05 06:22:46;;;;;;;6.45;2.50;;;9.30;99.90;;;;;;4997229;28;20538;-76
2023/11/05 06:25:15;;;;;;;5.50;2.30;;;9.30;99.90;;;;;;4981958;28;20088;-77
2023/11/05 06:27:44;;;;;;;5.38;2.47;;;9.30;99.90;;;;;;5001964;28;20180;-76
2023/11/05 06:30:15;;;;;;;5.43;2.53;;;9.40;99.90;;;;;;4982131;28;20134;-76
2023/11/05 06:32:43;;;;;;;4.30;2.20;;;9.40;99.90;;;;;;4981178;28;20038;-78
2023/11/05 06:35:12;;;;;;;6.47;1.90;;;9.40;99.90;;;;;;4983278;28;20054;-77
2023/11/05 06:37:40;;;;;;;8.90;3.85;;;9.40;99.90;;;;;;5000799;28;20043;-77
2023/11/05 06:40:10;;;;;;;8.55;3.75;;;9.40;99.90;;;;;;5018591;28;20138;-77
2023/11/05 06:42:39;;;;;;;7.05;2.60;;;9.40;99.90;;;;;;4982246;28;20057;-75
2023/11/05 06:45:09;;;;;;;7.25;2.17;;;9.40;99.90;;;;;;4981200;28;20058;-76
2023/11/05 06:47:38;;;;;;;3.72;1.70;;;9.50;99.90;;;;;;5013732;28;20084;-77
2023/11/05 06:50:07;;;;;;;5.43;2.45;;;9.50;99.90;;;;;;5013202;28;20045;-77
2023/11/05 06:52:36;;;;;;;6.97;2.08;;;9.50;99.90;;;;;;4980393;28;20416;-76
2023/11/05 06:55:08;;;;;;;5.40;3.92;;;9.50;99.90;;;;;;4982333;28;20057;-77
2023/11/05 06:57:37;;;;;;;2.90;0.88;;;9.50;99.90;;;;;;5015497;28;20819;-78
2023/11/05 07:00:09;;;;;;;3.78;1.58;;;9.50;99.90;;;;;;4981997;28;20049;-76
2023/11/05 07:02:38;;;;;;;3.28;1.20;;;9.60;99.90;;;;;;4991091;28;20061;-76
2023/11/05 07:05:07;;;;;;;5.65;2.15;;;9.60;99.90;;;;;;4979284;28;20049;-76
2023/11/05 07:07:36;;;;;;;5.88;1.40;;;9.60;99.90;;;;;;4979914;28;20071;-77
2023/11/05 07:10:06;;;;;;;7.82;1.73;;;9.60;99.90;;;;;;4998548;28;20540;-77
2023/11/05 07:12:35;;;;;;;6.88;3.70;;;9.70;99.90;;;;;;4979059;28;20512;-77
2023/11/05 07:15:04;;;;;;;4.28;2.58;;;9.70;99.90;;;;;;4994629;28;22098;-76
2023/11/05 07:17:38;;;;;;;6.25;1.55;;;9.70;99.90;;;;;;4994914;28;20876;-76
2023/11/05 07:20:11;;;;;;;4.30;1.50;;;9.70;99.90;;;;;;4978633;28;20042;-78
2023/11/05 07:22:40;;;;;;;5.25;2.17;;;9.70;99.90;;;;;;4998159;28;20057;-76
2023/11/05 07:25:10;;;;;;;4.95;2.63;;;9.70;99.90;;;;;;4984658;28;20081;-77
2023/11/05 07:27:38;;;;;;;5.70;2.05;;;9.70;99.90;;;;;;5010501;28;20056;-77
2023/11/05 07:30:10;;;;;;;4.80;3.47;;;9.80;99.90;;;;;;5015700;28;20215;-78
2023/11/05 07:32:40;;;;;;;6.78;6.07;;;9.80;99.90;;;;;;4981360;28;20041;-77
2023/11/05 07:35:08;;;;;;;5.90;3.20;;;9.80;99.90;;;;;;5011310;28;20053;-78
2023/11/05 07:37:37;;;;;;;6.95;3.08;;;9.80;99.90;;;;;;5006612;28;20140;-78
2023/11/05 07:40:07;;;;;;;7.80;7.20;;;9.90;99.90;;;;;;4985347;28;20042;-79
2023/11/05 07:42:36;;;;;;;5.95;2.08;;;9.90;99.90;;;;;;5014783;28;20187;-78
2023/11/05 07:45:06;;;;;;;13.50;12.15;;;10.00;99.90;;;;;;4998077;28;20065;-77
2023/11/05 07:47:38;;;;;;;9.93;3.70;;;10.00;99.90;;;;;;4994036;28;20123;-79
2023/11/05 07:50:11;;;;;;;10.40;4.40;;;10.00;99.90;;;;;;4998070;28;20825;-77
2023/11/05 07:52:42;;;;;;;8.25;4.47;;;10.00;99.90;;;;;;4983127;28;20056;-82
2023/11/05 07:55:11;;;;;;;7.18;4.22;;;10.00;99.90;;;;;;4982063;28;20049;-77
2023/11/05 07:57:41;;;;;;;13.75;4.70;;;10.00;99.90;;;;;;4998010;28;20085;-78
2023/11/05 08:00:15;;;;;;;8.88;3.10;;;10.00;99.90;;;;;;4980445;28;20504;-77
2023/11/05 08:02:44;;;;;;;12.23;7.43;;;10.00;99.90;;;;;;4979441;28;20527;-76
2023/11/05 08:05:14;;;;;;;11.93;4.15;;;10.10;99.90;;;;;;4997624;28;20067;-77
2023/11/05 08:07:42;;;;;;;28.95;8.10;;;10.10;99.90;;;;;;4980985;28;20061;-77
2023/11/05 08:10:13;;;;;;;13.88;5.32;;;10.10;99.90;;;;;;4995339;28;20832;-78
2023/11/05 08:12:42;;;;;;;10.80;6.10;;;10.10;99.90;;;;;;4980721;28;20089;-79
2023/11/05 08:15:10;;;;;;;4.22;2.78;;;10.10;99.90;;;;;;4969372;28;20045;-79
2023/11/05 08:17:41;;;;;;;7.35;5.25;;;10.10;99.90;;;;;;4995670;28;20413;-77
2023/11/05 08:20:15;;;;;;;19.70;10.15;;;10.20;99.90;;;;;;4997876;28;20103;-78
2023/11/05 08:22:44;;;;;;;7.10;2.50;;;10.20;99.90;;;;;;4989325;28;20041;-78
2023/11/05 08:25:13;;;;;;;4.45;1.70;;;10.20;99.90;;;;;;4996914;28;20060;-77
2023/11/05 08:27:42;;;;;;;7.07;2.60;;;10.20;99.90;;;;;;4998398;28;20093;-77
2023/11/05 08:30:13;;;;;;;1.63;0.90;;;10.20;99.90;;;;;;4994216;28;20041;-78
2023/11/05 08:32:42;;;;;;;4.22;3.58;;;10.20;99.90;;;;;;5019201;28;20084;-80
2023/11/05 08:35:12;;;;;;;4.93;4.55;;;10.20;99.90;;;;;;5002822;28;20955;-77
2023/11/05 08:37:42;;;;;;;3.50;1.15;;;10.20;99.90;;;;;;4987772;28;20061;-77
2023/11/05 08:40:13;;;;;;;3.25;1.27;;;10.20;99.90;;;;;;4999704;28;20052;-76
2023/11/05 08:42:43;;;;;;;5.35;1.60;;;10.10;99.90;;;;;;5001395;28;20045;-78
2023/11/05 08:45:20;;;;;;;3.53;1.10;;;10.20;99.90;;;;;;5004075;28;20811;-79
2023/11/05 08:47:49;;;;;;;4.88;1.70;;;10.20;99.90;;;;;;4984258;28;20497;-77
2023/11/05 08:50:19;;;;;;;3.95;1.35;;;10.20;99.90;;;;;;5010599;28;20463;-79
2023/11/05 08:52:49;;;;;;;5.20;1.88;;;10.20;99.90;;;;;;5011620;28;20054;-77
2023/11/05 08:55:17;;;;;;;3.70;1.25;;;10.20;99.90;;;;;;4986357;28;20053;-78
2023/11/05 08:57:46;;;;;;;4.18;1.42;;;10.20;99.90;;;;;;4982461;28;20084;-79
2023/11/05 09:00:15;;;;;;;1.77;0.77;;;10.20;99.90;;;;;;5000347;28;20041;-78
2023/11/05 09:02:43;;;;;;;5.60;1.10;;;10.20;99.90;;;;;;4989277;28;22198;-77
2023/11/05 09:05:12;;;;;;;4.88;0.80;;;10.20;99.90;;;;;;5042954;28;20057;-78
2023/11/05 09:07:44;;;;;;;5.63;1.55;;;10.30;99.90;;;;;;5022449;28;20053;-79
2023/11/05 09:10:16;;;;;;;1.88;0.60;;;10.20;99.90;;;;;;4974157;28;20079;-79
2023/11/05 09:12:44;;;;;;;2.90;2.03;;;10.30;99.90;;;;;;4996092;28;20045;-82
2023/11/05 09:15:14;;;;;;;2.30;0.50;;;10.40;99.90;;;;;;5009583;28;20084;-81
2023/11/05 09:17:46;;;;;;;5.50;0.93;;;10.40;99.90;;;;;;5010110;28;20775;-80
2023/11/05 09:20:16;;;;;;;5.53;1.42;;;10.30;99.90;;;;;;4991158;28;20050;-80
2023/11/05 09:22:46;;;;;;;5.22;3.88;;;10.40;99.90;;;;;;5026556;28;20168;-78
2023/11/05 09:25:18;;;;;;;3.28;1.10;;;10.40;99.90;;;;;;5009850;28;20057;-81
2023/11/05 09:27:49;;;;;;;6.30;2.95;;;10.40;99.90;;;;;;4993058;28;20072;-80
2023/11/05 09:30:18;;;;;;;3.38;2.33;;;10.40;99.90;;;;;;4995267;28;20064;-79
2023/11/05 09:32:50;;;;;;;2.88;1.05;;;10.50;99.90;;;;;;5036883;28;20127;-80
2023/11/05 09:35:19;;;;;;;8.18;2.97;;;10.40;99.90;;;;;;4989788;28;20171;-77
2023/11/05 09:37:48;;;;;;;7.30;1.75;;;10.50;99.90;;;;;;4992059;28;20557;-78
2023/11/05 09:40:19;;;;;;;4.18;1.88;;;10.50;99.90;;;;;;5006302;28;20508;-79
2023/11/05 09:42:58;;;;;;;3.80;1.15;;;10.30;99.90;;;;;;5002925;28;23097;-78
2023/11/05 09:45:28;;;;;;;3.92;0.98;;;10.50;99.90;;;;;;5011898;28;20061;-78
2023/11/05 09:47:58;;;;;;;2.30;0.80;;;10.40;99.90;;;;;;5009331;28;20345;-78
2023/11/05 09:50:26;;;;;;;3.65;1.20;;;10.40;99.90;;;;;;4977505;28;20041;-78
2023/11/05 09:53:05;;;;;;;4.38;0.75;;;10.50;99.90;;;;;;5001789;28;20511;-77
2023/11/05 09:55:35;;;;;;;5.55;1.25;;;10.60;99.90;;;;;;4977661;28;20408;-77
2023/11/05 09:58:04;;;;;;;5.97;1.58;;;10.60;99.90;;;;;;4977233;28;20733;-77
2023/11/05 10:00:33;;;;;;;6.40;1.20;;;10.60;99.90;;;;;;4994485;28;20064;-77
2023/11/05 10:03:05;;;;;;;13.70;4.28;;;10.60;99.90;;;;;;4998244;28;20056;-78
2023/11/05 10:05:35;;;;;;;5.25;2.40;;;10.60;99.90;;;;;;4984370;28;20045;-77
2023/11/05 10:08:05;;;;;;;7.03;2.28;;;10.60;99.90;;;;;;5021897;28;20062;-80
2023/11/05 10:10:38;;;;;;;4.35;1.33;;;10.60;99.90;;;;;;5007495;28;20088;-77
2023/11/05 10:13:07;;;;;;;2.92;1.05;;;10.50;99.90;;;;;;4989263;28;20103;-78
2023/11/05 10:15:36;;;;;;;1.67;0.63;;;10.60;99.90;;;;;;4996866;28;20091;-79
2023/11/05 10:18:06;;;;;;;0.63;0.55;;;10.60;99.90;;;;;;5004452;28;20050;-77
2023/11/05 10:20:50;;;;;;;3.50;0.60;;;10.60;99.90;;;;;;4990506;28;20046;-79
2023/11/05 10:23:18;;;;;;;4.75;1.45;;;10.60;99.90;;;;;;4990269;28;20136;-77
2023/11/05 10:25:50;;;;;;;5.07;1.55;;;10.60;99.90;;;;;;5029462;28;24504;-78
2023/11/05 10:28:20;;;;;;;4.50;2.85;;;10.70;99.90;;;;;;5028726;28;20091;-79
2023/11/05 10:30:50;;;;;;;2.90;1.05;;;10.70;99.90;;;;;;5023906;28;20502;-77
2023/11/05 10:33:20;;;;;;;3.22;2.92;;;10.70;99.90;;;;;;5018764;28;20636;-77
2023/11/05 10:35:49;;;;;;;3.40;0.65;;;10.70;99.90;;;;;;4999323;28;20056;-77
2023/11/05 10:38:18;;;;;;;3.53;1.25;;;10.70;99.90;;;;;;5011257;28;20130;-77
2023/11/05 10:40:50;;;;;;;4.10;1.20;;;10.70;99.90;;;;;;5042768;28;20191;-76
2023/11/05 10:43:20;;;;;;;3.58;1.00;;;10.70;99.90;;;;;;5025052;28;20578;-76
2023/11/05 10:45:53;;;;;;;3.85;2.95;;;10.70;99.90;;;;;;5017377;28;20071;-75
2023/11/05 10:48:21;;;;;;;3.70;1.15;;;10.80;99.90;;;;;;4997929;28;20115;-74
2023/11/05 10:50:53;;;;;;;3.63;0.93;;;10.80;99.90;;;;;;4997240;28;20223;-75
2023/11/05 10:53:22;;;;;;;4.07;2.05;;;10.90;99.90;;;;;;5011962;28;20048;-76
2023/11/05 10:55:53;;;;;;;4.15;1.10;;;10.90;99.90;;;;;;5013888;28;20651;-77
2023/11/05 10:58:39;;;;;;;4.90;1.20;;;10.90;99.90;;;;;;4986186;28;20057;-75
2023/11/05 11:01:15;;;;;;;4.15;1.40;;;11.00;99.90;;;;;;4999792;28;20543;-75
2023/11/05 11:03:44;;;;;;;3.58;0.93;;;11.00;99.90;;;;;;4995558;28;20131;-74
2023/11/05 11:06:15;;;;;;;1.98;1.48;;;11.00;99.90;;;;;;4978200;28;20136;-77
2023/11/05 11:08:59;;;;;;;4.45;0.90;;;11.10;99.90;;;;;;4966468;28;20049;-77
2023/11/05 11:11:29;;;;;;;3.50;0.90;;;11.10;99.90;;;;;;4993837;28;20053;-74
2023/11/05 11:13:58;;;;;;;4.50;3.65;;;11.10;99.90;;;;;;4998072;28;20612;-75
2023/11/05 11:16:30;;;;;;;3.45;1.33;;;11.00;99.90;;;;;;5002841;28;20061;-76
2023/11/05 11:19:07;;;;;;;3.88;1.88;;;11.10;99.90;;;;;;4979835;28;20049;-75
2023/11/05 11:21:39;;;;;;;2.72;0.70;;;11.00;99.90;;;;;;4976236;28;20574;-75
2023/11/05 11:24:33;;;;;;;2.70;0.70;;;11.00;99.90;;;;;;4974256;28;20129;-74
2023/11/05 11:27:05;;;;;;;1.92;0.52;;;11.10;99.90;;;;;;5005725;28;20045;-76
2023/11/05 11:29:35;;;;;;;3.72;3.40;;;11.10;99.90;;;;;;4986290;28;20049;-76
2023/11/05 11:32:04;;;;;;;3.78;0.68;;;11.10;99.90;;;;;;4981043;28;22233;-75
2023/11/05 11:34:33;;;;;;;4.60;4.20;;;11.10;99.90;;;;;;4985459;28;20061;-74
2023/11/05 11:37:03;;;;;;;4.50;1.30;;;11.10;99.90;;;;;;4986007;28;20778;-75
2023/11/05 11:39:32;;;;;;;3.05;1.17;;;11.10;99.90;;;;;;4976992;28;20092;-75
2023/11/05 11:42:01;;;;;;;3.30;0.98;;;11.10;99.90;;;;;;5002250;28;20065;-75
2023/11/05 11:44:31;;;;;;;3.65;0.63;;;11.10;99.90;;;;;;5002046;28;20100;-75
2023/11/05 11:47:00;;;;;;;3.05;0.50;;;11.20;99.90;;;;;;4995096;28;20053;-74
2023/11/05 11:49:29;;;;;;;1.95;0.50;;;11.20;99.90;;;;;;4984805;28;20045;-77
2023/11/05 11:51:58;;;;;;;3.55;1.63;;;11.20;99.90;;;;;;4990471;28;20108;-76
2023/11/05 11:54:28;;;;;;;2.47;1.42;;;11.30;99.90;;;;;;4977394;28;20057;-77
2023/11/05 11:56:59;;;;;;;4.43;1.38;;;11.30;99.90;;;;;;4978772;28;20045;-75
2023/11/05 11:59:29;;;;;;;2.47;1.10;;;11.20;99.90;;;;;;4991901;28;20080;-76
2023/11/05 12:02:02;;;;;;;2.75;0.85;;;11.30;99.90;;;;;;4974185;28;20103;-76
2023/11/05 12:04:31;;;;;;;2.42;1.15;;;11.30;99.90;;;;;;5006335;28;20144;-75
2023/11/05 12:07:05;;;;;;;3.25;1.55;;;11.20;99.90;;;;;;4993380;28;20045;-77
2023/11/05 12:09:35;;;;;;;5.80;2.00;;;11.30;99.90;;;;;;4987615;28;20064;-78
2023/11/05 12:12:03;;;;;;;6.65;2.65;;;11.30;99.90;;;;;;5006754;28;20147;-79
2023/11/05 12:14:33;;;;;;;5.93;2.58;;;11.20;99.90;;;;;;5007777;28;20509;-78
2023/11/05 12:17:03;;;;;;;4.38;2.00;;;11.20;99.90;;;;;;4992028;28;22267;-78
2023/11/05 12:19:34;;;;;;;2.78;1.75;;;11.30;99.90;;;;;;4971085;28;20428;-78
2023/11/05 12:22:04;;;;;;;5.78;3.88;;;11.40;99.90;;;;;;4990754;28;20057;-78
2023/11/05 12:24:33;;;;;;;8.10;4.63;;;11.60;99.90;;;;;;4985328;28;20064;-76
2023/11/05 12:27:03;;;;;;;8.10;4.50;;;11.60;99.90;;;;;;4970954;28;22243;-77
2023/11/05 12:29:32;;;;;;;6.47;3.88;;;11.60;99.90;;;;;;4972865;28;22257;-77
2023/11/05 12:32:03;;;;;;;6.10;3.08;;;11.60;99.90;;;;;;4971296;28;22189;-77
2023/11/05 12:34:32;;;;;;;6.43;3.35;;;11.60;99.90;;;;;;4986163;28;20068;-76
2023/11/05 12:37:00;;;;;;;4.45;2.63;;;11.70;99.90;;;;;;4996695;28;20041;-76
2023/11/05 12:39:29;;;;;;;11.07;5.30;;;11.70;99.90;;;;;;4993026;28;20468;-76
2023/11/05 12:41:57;;;;;;;7.80;5.97;;;11.70;99.90;;;;;;4973968;28;20922;-76
2023/11/05 12:44:26;;;;;;;8.45;5.25;;;11.80;99.90;;;;;;4973521;28;20393;-77
2023/11/05 12:47:01;;;;;;;5.65;3.90;;;11.90;99.90;;;;;;4973335;28;20053;-78
2023/11/05 12:49:31;;;;;;;9.18;4.15;;;11.90;99.90;;;;;;5005427;28;20535;-75
2023/11/05 12:51:59;;;;;;;11.32;5.70;;;12.00;99.90;;;;;;4971081;28;20068;-76
2023/11/05 12:54:28;;;;;;;8.55;4.55;;;12.00;99.90;;;;;;4974916;28;20079;-76
2023/11/05 12:56:56;;;;;;;8.93;5.72;;;12.10;99.90;;;;;;4977420;28;20393;-75
2023/11/05 12:59:26;;;;;;;15.43;7.93;;;12.20;99.90;;;;;;4972573;28;20089;-76
2023/11/05 13:01:55;;;;;;;10.15;6.15;;;12.20;99.90;;;;;;4988276;28;20057;-76
2023/11/05 13:04:34;;;;;;;9.95;5.03;;;12.10;99.90;;;;;;4973028;28;20057;-76